Mattaponi, VA

5:27 AM EST on February 21, 2017 (GMT -0500)
West Point

Weather History for KFYJ - December, 2012

Change the Weather History Date:

Friday, December 21, 2012

  Actual Average (KJGG) Record (KJGG)
Temperature  
Mean Temperature 48 °F -  
Max Temperature 61 °F 50 °F 73 °F (2013)
Min Temperature 36 °F 30 °F 4 °F (1985)
Degree Days  
Heating Degree Days 16    
Moisture  
Dew Point 35 °F    
Average Humidity 67    
Maximum Humidity 100    
Minimum Humidity 47    
Precipitation  
Precipitation 0.27 in - - ()
Sea Level Pressure  
Sea Level Pressure 29.50 in    
Wind  
Wind Speed 19 mph (WSW)    
Max Wind Speed 28 mph    
Max Gust Speed 36 mph    
Visibility 10 miles    
Events      
Averages and records for this station are not official NWS values.
T = Trace of Precipitation, MM = Missing Value Source: NWS Daily Summary

Daily Weather History Graph

Daily Weather History Graph

Search for Another Location

Airport or City:

Trip Planner

Search our weather history database for the weather conditions in past years. The results will help you decide how hot, cold, wet, or windy it might be!

Date:

Astronomy

Dec. 21, 2012 Rise Set
Actual Time 7:18 AM EST 4:52 PM EST
Civil Twilight 6:48 AM EST 5:21 PM EST
Nautical Twilight 6:16 AM EST 5:54 PM EST
Astronomical Twilight 5:44 AM EST 6:26 PM EST
Moon 12:34 PM EST 1:07 AM EST
Length of Visible Light 10h 32m
Length of Day
9h 34m
Waxing Gibbous, 64% of the Moon is Illuminated
Dec 21
Waxing Gibbous
Dec 28
Full
Jan 4
Last Quarter
Jan 11
New
Jan 18
First Quarter

Hourly Weather History & Observations

Time (EST) Temp. Windchill Dew Point Humidity Pressure Visibility Wind Dir Wind Speed Gust Speed Precip Events Conditions
12:15 AM 59.2 °F - 59.0 °F 99% 29.46 in 4.0 mi SSE 19.6 mph 27.6 mph 0.04 in   Overcast
12:35 AM 59.9 °F - 59.9 °F 100% 29.43 in 4.0 mi SE 20.7 mph 32.2 mph 0.11 in   Overcast
12:55 AM 59.9 °F - 59.9 °F 100% 29.40 in 7.0 mi SSE 25.3 mph 34.5 mph 0.11 in   Overcast
1:15 AM 60.8 °F - 60.3 °F 98% 29.39 in 5.0 mi SSE 24.2 mph 34.5 mph 0.01 in   Overcast
1:35 AM 60.4 °F - 60.3 °F 99% 29.37 in 5.0 mi SSE 27.6 mph 35.7 mph 0.02 in   Overcast
1:55 AM 60.8 °F - 60.8 °F 100% 29.34 in 10.0 mi SSE 21.9 mph 33.4 mph 0.02 in   Overcast
2:15 AM 61.2 °F - 61.0 °F 99% 29.34 in 5.0 mi SSE 17.3 mph 29.9 mph 0.01 in   Overcast
2:35 AM 61.5 °F - 61.5 °F 100% 29.33 in 5.0 mi South 16.1 mph 23.0 mph 0.05 in   Overcast
2:55 AM 61.7 °F - 61.7 °F 100% 29.34 in 7.0 mi SW 21.9 mph 29.9 mph 0.14 in   Overcast
3:15 AM 57.9 °F - 55.4 °F 91% 29.35 in 10.0 mi WSW 21.9 mph 33.4 mph N/A   Overcast
3:35 AM 56.3 °F - 53.1 °F 89% 29.36 in 10.0 mi WSW 21.9 mph 29.9 mph N/A   Overcast
3:55 AM 54.9 °F - 50.7 °F 86% 29.37 in 10.0 mi WSW 17.3 mph 26.5 mph N/A   Overcast
4:15 AM 53.4 °F - 48.4 °F 83% 29.37 in 10.0 mi WSW 16.1 mph 23.0 mph N/A   Scattered Clouds
4:35 AM 52.3 °F - 48.4 °F 86% 29.37 in 10.0 mi WSW 16.1 mph 23.0 mph N/A   Scattered Clouds
4:55 AM 51.6 °F - 47.7 °F 86% 29.37 in 10.0 mi WSW 16.1 mph 21.9 mph N/A   Mostly Cloudy
5:15 AM 50.5 °F - 45.9 °F 84% 29.38 in 10.0 mi WSW 13.8 mph - N/A   Mostly Cloudy
5:35 AM 49.5 °F - 44.1 °F 82% 29.38 in 10.0 mi WSW 13.8 mph 20.7 mph N/A   Scattered Clouds
5:55 AM 48.4 °F - 42.3 °F 79% 29.39 in 10.0 mi SW 15.0 mph 23.0 mph N/A   Scattered Clouds
6:15 AM 47.7 °F - 40.8 °F 77% 29.40 in 10.0 mi SW 18.4 mph 24.2 mph N/A   Scattered Clouds
6:35 AM 46.9 °F - 39.7 °F 76% 29.41 in 10.0 mi WSW 17.3 mph 24.2 mph N/A   Scattered Clouds
6:55 AM 46.0 °F 39.6 °F 38.7 °F 75% 29.42 in 10.0 mi WSW 15.0 mph 25.3 mph N/A   Scattered Clouds
7:15 AM 45.5 °F 37.3 °F 37.2 °F 73% 29.43 in 10.0 mi WSW 21.9 mph 26.5 mph N/A   Scattered Clouds
7:35 AM 45.7 °F 38.6 °F 37.2 °F 72% 29.44 in 10.0 mi WSW 17.3 mph - N/A   Mostly Cloudy
7:55 AM 45.5 °F 37.3 °F 36.0 °F 69% 29.45 in 10.0 mi WSW 21.9 mph 26.5 mph N/A   Overcast
8:15 AM 45.1 °F 37.9 °F 34.5 °F 66% 29.45 in 10.0 mi WSW 17.3 mph 26.5 mph N/A   Overcast
8:35 AM 45.0 °F 38.2 °F 34.5 °F 67% 29.46 in 10.0 mi WSW 15.0 mph 24.2 mph N/A   Overcast
8:55 AM 44.8 °F 36.9 °F 34.2 °F 66% 29.47 in 10.0 mi WSW 19.6 mph 24.2 mph N/A   Overcast
9:15 AM 44.8 °F 37.1 °F 33.4 °F 64% 29.48 in 10.0 mi WSW 18.4 mph 24.2 mph N/A   Overcast
9:35 AM 44.8 °F 38.0 °F 32.7 °F 63% 29.49 in 10.0 mi WSW 15.0 mph 23.0 mph N/A   Overcast
9:55 AM 44.8 °F 37.1 °F 32.2 °F 61% 29.49 in 10.0 mi WSW 18.4 mph 24.2 mph N/A   Overcast
10:15 AM 44.6 °F 36.9 °F 31.6 °F 60% 29.50 in 10.0 mi WSW 18.4 mph 31.1 mph N/A   Overcast
10:35 AM 44.6 °F 36.9 °F 31.8 °F 61% 29.50 in 10.0 mi WSW 18.4 mph 24.2 mph N/A   Overcast
10:55 AM 45.0 °F 36.9 °F 31.6 °F 60% 29.50 in 10.0 mi WSW 20.7 mph 26.5 mph N/A   Overcast
11:15 AM 46.0 °F 38.8 °F 31.5 °F 57% 29.49 in 10.0 mi West 18.4 mph 28.8 mph N/A   Overcast
11:35 AM 45.7 °F 36.6 °F 31.1 °F 57% 29.49 in 10.0 mi West 27.6 mph 35.7 mph N/A   Overcast
11:55 AM 45.9 °F 37.6 °F 31.6 °F 58% 29.49 in 10.0 mi WSW 23.0 mph 27.6 mph N/A   Overcast
12:15 PM 45.9 °F 38.3 °F 30.7 °F 56% 29.48 in 10.0 mi West 19.6 mph 26.5 mph N/A   Overcast
12:35 PM 45.5 °F 38.1 °F 30.9 °F 57% 29.48 in 10.0 mi West 18.4 mph 27.6 mph N/A   Overcast
12:55 PM 45.5 °F 37.8 °F 30.7 °F 56% 29.48 in 10.0 mi WSW 19.6 mph 25.3 mph N/A   Overcast
1:15 PM 46.0 °F 38.8 °F 29.8 °F 53% 29.48 in 10.0 mi West 18.4 mph 25.3 mph N/A   Overcast
1:35 PM 45.9 °F 38.0 °F 27.1 °F 48% 29.48 in 10.0 mi West 20.7 mph 26.5 mph N/A   Overcast
1:55 PM 45.5 °F 38.1 °F 27.7 °F 50% 29.48 in 10.0 mi West 18.4 mph 29.9 mph N/A   Overcast
2:15 PM 46.2 °F 37.5 °F 27.1 °F 47% 29.49 in 10.0 mi West 26.5 mph 32.2 mph N/A   Overcast
2:35 PM 45.5 °F 37.1 °F 27.3 °F 49% 29.49 in 10.0 mi WSW 23.0 mph 29.9 mph N/A   Overcast
2:55 PM 45.0 °F 37.6 °F 28.2 °F 52% 29.50 in 10.0 mi West 17.3 mph 28.8 mph N/A   Overcast
3:15 PM 44.8 °F 36.2 °F 27.7 °F 51% 29.50 in 10.0 mi West 23.0 mph 32.2 mph N/A   Overcast
3:35 PM 44.1 °F 36.5 °F 27.3 °F 52% 29.51 in 10.0 mi West 17.3 mph 26.5 mph N/A   Overcast
3:55 PM 43.9 °F 35.9 °F 27.7 °F 53% 29.52 in 10.0 mi WSW 18.4 mph 25.3 mph N/A   Overcast
4:15 PM 43.5 °F 36.1 °F 27.3 °F 53% 29.53 in 10.0 mi WSW 16.1 mph 25.3 mph N/A   Overcast
4:35 PM 43.2 °F 35.3 °F 27.5 °F 54% 29.54 in 10.0 mi WSW 17.3 mph 24.2 mph N/A   Overcast
4:55 PM 42.8 °F 34.8 °F 26.2 °F 52% 29.55 in 10.0 mi West 17.3 mph 27.6 mph N/A   Mostly Cloudy
5:15 PM 42.3 °F 35.1 °F 26.1 °F 53% 29.55 in 10.0 mi West 13.8 mph 26.5 mph N/A   Scattered Clouds
5:35 PM 41.9 °F 33.4 °F 25.7 °F 53% 29.57 in 10.0 mi West 18.4 mph 26.5 mph N/A   Clear
5:55 PM 41.4 °F 34.0 °F 25.2 °F 53% 29.58 in 10.0 mi West 13.8 mph 26.5 mph N/A   Scattered Clouds
6:15 PM 41.4 °F 32.4 °F 25.0 °F 52% 29.59 in 10.0 mi West 19.6 mph 23.0 mph N/A   Mostly Cloudy
6:35 PM 41.0 °F 33.5 °F 25.7 °F 55% 29.60 in 10.0 mi WSW 13.8 mph 19.6 mph N/A   Overcast
6:55 PM 41.0 °F 33.9 °F 25.7 °F 55% 29.60 in 10.0 mi WSW 12.7 mph 18.4 mph N/A   Overcast
7:15 PM 40.6 °F 32.3 °F 25.5 °F 55% 29.60 in 10.0 mi West 16.1 mph 21.9 mph N/A   Mostly Cloudy
7:35 PM 40.8 °F 32.3 °F 25.5 °F 55% 29.61 in 10.0 mi WSW 17.3 mph 25.3 mph N/A   Mostly Cloudy
7:55 PM 41.0 °F 32.2 °F 25.9 °F 55% 29.61 in 10.0 mi WSW 18.4 mph 26.5 mph N/A   Overcast
8:15 PM 40.1 °F 31.0 °F 24.8 °F 54% 29.62 in 10.0 mi West 18.4 mph 27.6 mph N/A   Mostly Cloudy
8:35 PM 39.4 °F 31.1 °F 24.6 °F 56% 29.62 in 10.0 mi West 15.0 mph 21.9 mph N/A   Scattered Clouds
8:55 PM 39.2 °F 30.5 °F 24.4 °F 56% 29.63 in 10.0 mi WSW 16.1 mph 27.6 mph N/A   Mostly Cloudy
9:15 PM 38.8 °F 30.4 °F 24.3 °F 56% 29.63 in 10.0 mi WSW 15.0 mph 24.2 mph N/A   Mostly Cloudy
9:35 PM 38.3 °F 29.0 °F 24.4 °F 57% 29.64 in 10.0 mi WSW 17.3 mph 21.9 mph N/A   Scattered Clouds
9:55 PM 37.8 °F 29.0 °F 24.4 °F 59% 29.64 in 10.0 mi WSW 15.0 mph - N/A   Clear
10:15 PM 37.4 °F 29.3 °F 24.6 °F 60% 29.65 in 10.0 mi WSW 12.7 mph 19.6 mph N/A   Clear
10:35 PM 37.4 °F 28.5 °F 24.6 °F 60% 29.66 in 10.0 mi WSW 15.0 mph 21.9 mph N/A   Clear
10:55 PM 37.0 °F 28.1 °F 24.6 °F 61% 29.66 in 10.0 mi WSW 15.0 mph 20.7 mph N/A   Clear
11:15 PM 36.7 °F 28.0 °F 24.6 °F 62% 29.66 in 10.0 mi West 13.8 mph 19.6 mph N/A   Clear
11:35 PM 36.5 °F 28.7 °F 24.8 °F 63% 29.67 in 10.0 mi West 11.5 mph 18.4 mph N/A   Clear
11:55 PM 36.5 °F 27.8 °F 24.8 °F 63% 29.67 in 10.0 mi WSW 13.8 mph - N/A   Clear